Time;durP1;ratioP1;P1;durP2;ratioP2;P2;SDS_P1;SDS_P2;PMS_P1;PMS_P2;Temp;Humidity;BMP_temperature;BMP_pressure;BME280_temperature;BME280_humidity;BME280_pressure;Samples;Min_cycle;Max_cycle;Signal;HPM_P1;HPM_P2
2023/01/15 00:01:49;;;;;;;7.32;1.15;;;35.70;55.30;;;;;;5070207;28;20389;-66
2023/01/15 00:04:17;;;;;;;2.80;0.90;;;35.90;53.40;;;;;;5071555;28;20048;-63
2023/01/15 00:06:44;;;;;;;3.05;0.70;;;36.00;55.30;;;;;;5067694;28;20091;-64
2023/01/15 00:09:14;;;;;;;6.18;0.93;;;35.90;53.40;;;;;;5070767;28;20043;-64
2023/01/15 00:11:42;;;;;;;3.70;0.88;;;36.30;55.10;;;;;;5070832;28;20037;-64
2023/01/15 00:14:11;;;;;;;4.30;0.80;;;36.20;50.50;;;;;;5070761;28;20060;-64
2023/01/15 00:16:39;;;;;;;4.45;1.00;;;35.70;51.00;;;;;;5070614;28;20051;-66
2023/01/15 00:19:10;;;;;;;3.13;0.80;;;34.40;52.60;;;;;;5071285;28;20021;-62
2023/01/15 00:21:38;;;;;;;2.67;0.75;;;34.30;53.70;;;;;;5069554;28;20024;-66
2023/01/15 00:29:36;;;;;;;3.80;1.15;;;34.80;54.70;;;;;;5069505;28;20509;-65
2023/01/15 00:32:07;;;;;;;5.57;1.00;;;35.00;53.20;;;;;;5068759;28;20123;-65
2023/01/15 00:34:35;;;;;;;5.55;0.90;;;34.60;52.00;;;;;;5066281;28;20029;-63
2023/01/15 00:37:03;;;;;;;2.25;1.25;;;34.70;53.00;;;;;;5070585;28;20389;-65
2023/01/15 00:39:30;;;;;;;3.47;0.93;;;34.70;53.00;;;;;;5070515;28;20474;-65
2023/01/15 00:41:57;;;;;;;4.03;0.70;;;34.20;53.50;;;;;;5071028;28;20032;-65
2023/01/15 00:44:27;;;;;;;3.22;0.93;;;34.10;51.70;;;;;;5069194;28;20024;-65
2023/01/15 00:46:55;;;;;;;3.40;0.95;;;34.30;53.80;;;;;;5069918;28;20028;-65
2023/01/15 00:49:22;;;;;;;3.38;0.85;;;34.80;53.70;;;;;;5068859;28;20028;-65
2023/01/15 00:51:56;;;;;;;2.28;0.70;;;34.80;50.60;;;;;;5070604;28;20032;-65
2023/01/15 00:54:23;;;;;;;2.28;0.90;;;34.30;50.80;;;;;;5069075;28;20751;-65
2023/01/15 00:56:50;;;;;;;3.35;0.82;;;33.80;51.90;;;;;;5066962;28;20124;-65
2023/01/15 00:59:17;;;;;;;5.82;1.17;;;33.60;53.90;;;;;;5068973;28;20024;-67
2023/01/15 01:01:45;;;;;;;5.50;1.25;;;34.10;56.00;;;;;;5068101;28;20026;-67
2023/01/15 01:04:12;;;;;;;3.03;0.95;;;34.70;53.30;;;;;;5062309;28;20063;-67
2023/01/15 01:06:39;;;;;;;2.47;0.90;;;34.90;54.80;;;;;;5064605;28;20716;-66
2023/01/15 01:09:07;;;;;;;1.95;0.90;;;35.10;52.70;;;;;;5064707;28;20033;-66
2023/01/15 01:11:35;;;;;;;2.50;0.85;;;35.50;54.80;;;;;;5065788;28;20046;-66
2023/01/15 01:14:03;;;;;;;5.05;1.23;;;35.70;50.70;;;;;;5070827;28;20497;-66
2023/01/15 01:16:34;;;;;;;3.38;0.88;;;36.20;50.00;;;;;;5065445;28;20024;-65
2023/01/15 01:19:07;;;;;;;2.25;0.90;;;35.60;50.80;;;;;;5064886;28;20222;-65
2023/01/15 01:21:36;;;;;;;2.55;1.08;;;35.60;55.20;;;;;;5065861;28;20043;-64
2023/01/15 01:24:07;;;;;;;2.28;1.10;;;36.00;51.60;;;;;;5059194;28;20366;-65
2023/01/15 01:26:35;;;;;;;2.63;1.20;;;36.30;51.70;;;;;;5067746;28;20493;-63
2023/01/15 01:29:03;;;;;;;2.50;0.98;;;36.60;49.20;;;;;;5066422;28;20070;-62
2023/01/15 01:31:30;;;;;;;2.60;1.38;;;36.60;53.10;;;;;;5068331;28;20032;-61
2023/01/15 01:33:59;;;;;;;3.78;1.00;;;36.90;49.30;;;;;;5068396;28;20025;-61
2023/01/15 01:36:31;;;;;;;3.40;1.25;;;37.00;50.10;;;;;;5064555;28;20029;-63
2023/01/15 01:38:58;;;;;;;3.08;1.00;;;37.10;49.80;;;;;;5066650;28;20025;-63
2023/01/15 01:41:29;;;;;;;3.38;1.00;;;37.00;47.50;;;;;;5066816;28;20029;-64
2023/01/15 01:44:26;;;;;;;1.85;0.90;;;36.50;47.50;;;;;;5068219;28;20051;-63
2023/01/15 01:47:07;;;;;;;4.47;1.00;;;36.30;50.70;;;;;;5063716;28;20032;-63
2023/01/15 01:49:36;;;;;;;3.33;0.85;;;36.20;49.10;;;;;;5065223;28;20017;-64
2023/01/15 01:52:13;;;;;;;2.85;1.17;;;35.60;49.80;;;;;;5064221;28;20028;-63
2023/01/15 01:54:49;;;;;;;3.40;1.00;;;35.50;52.40;;;;;;5065265;28;20020;-64
2023/01/15 01:57:17;;;;;;;3.95;1.10;;;35.60;50.00;;;;;;5065591;28;20067;-64
2023/01/15 01:59:46;;;;;;;1.70;0.80;;;35.80;50.30;;;;;;5072775;28;20129;-64
2023/01/15 02:02:15;;;;;;;1.92;1.00;;;35.50;50.90;;;;;;5066974;28;20027;-64
2023/01/15 02:04:43;;;;;;;3.65;1.15;;;35.80;53.50;;;;;;5066773;28;20029;-62
2023/01/15 02:07:11;;;;;;;2.63;1.10;;;36.10;49.40;;;;;;5065230;28;20102;-63
2023/01/15 02:09:38;;;;;;;3.03;0.90;;;36.60;53.60;;;;;;5065609;28;20063;-63
2023/01/15 02:12:32;;;;;;;2.35;1.27;;;36.90;49.70;;;;;;5064614;28;20033;-63
2023/01/15 02:15:14;;;;;;;2.15;1.00;;;37.30;52.60;;;;;;5065223;28;20021;-63
2023/01/15 02:18:16;;;;;;;4.07;1.20;;;37.70;47.70;;;;;;5067372;28;20028;-63
2023/01/15 02:21:19;;;;;;;2.80;0.85;;;37.20;47.70;;;;;;5064795;28;20645;-63
2023/01/15 02:24:10;;;;;;;2.60;1.13;;;37.60;47.80;;;;;;5049890;28;20040;-63
2023/01/15 02:26:58;;;;;;;3.67;1.10;;;37.30;46.80;;;;;;5065954;28;20033;-63
2023/01/15 02:29:37;;;;;;;4.03;1.00;;;37.00;51.10;;;;;;5067205;28;20377;-63
2023/01/15 02:32:22;;;;;;;5.28;1.10;;;37.40;49.70;;;;;;5066193;28;20047;-65
2023/01/15 02:35:01;;;;;;;2.80;1.23;;;37.80;51.70;;;;;;5069564;28;20021;-65
2023/01/15 02:37:32;;;;;;;2.08;1.10;;;38.20;45.70;;;;;;5069154;28;20031;-64
2023/01/15 02:40:03;;;;;;;2.75;0.90;;;38.00;48.00;;;;;;5068325;28;20107;-63
2023/01/15 02:42:33;;;;;;;3.40;1.23;;;38.00;49.20;;;;;;5068513;28;20493;-64
2023/01/15 02:45:03;;;;;;;2.72;1.08;;;37.60;46.40;;;;;;5067614;28;20056;-61
2023/01/15 02:47:35;;;;;;;3.95;1.00;;;38.00;50.40;;;;;;5069057;28;20023;-64
2023/01/15 02:50:05;;;;;;;1.67;0.95;;;38.10;47.50;;;;;;5049042;28;20020;-63
2023/01/15 02:52:41;;;;;;;4.38;1.08;;;37.80;45.50;;;;;;5048835;28;20037;-62
2023/01/15 02:55:20;;;;;;;1.50;1.20;;;37.30;46.60;;;;;;5066486;28;20048;-62
2023/01/15 02:57:50;;;;;;;1.60;1.15;;;37.00;46.90;;;;;;5066649;28;20044;-63
2023/01/15 03:00:20;;;;;;;7.00;1.25;;;36.80;47.80;;;;;;5069109;28;20456;-64
2023/01/15 03:03:07;;;;;;;6.50;1.35;;;36.60;47.70;;;;;;5067858;28;20024;-63
2023/01/15 03:05:53;;;;;;;3.33;1.00;;;36.70;49.00;;;;;;5068669;28;20074;-62
2023/01/15 03:08:20;;;;;;;3.53;1.23;;;36.90;50.20;;;;;;5067290;28;20024;-63
2023/01/15 03:11:13;;;;;;;1.55;0.88;;;37.30;49.10;;;;;;5068589;28;20528;-61
2023/01/15 03:14:10;;;;;;;5.90;1.23;;;37.50;49.20;;;;;;5067883;28;20501;-61
2023/01/15 03:16:44;;;;;;;3.05;1.10;;;37.60;47.70;;;;;;5062705;28;20024;-62
2023/01/15 03:19:35;;;;;;;2.78;0.93;;;37.80;47.40;;;;;;5068608;28;20035;-62
2023/01/15 03:22:18;;;;;;;5.88;1.20;;;38.00;45.90;;;;;;5067383;28;20033;-61
2023/01/15 03:25:14;;;;;;;3.80;1.00;;;37.70;45.40;;;;;;5070328;28;20373;-61
2023/01/15 03:27:42;;;;;;;3.45;1.27;;;37.60;46.60;;;;;;5063666;28;20432;-63
2023/01/15 03:30:17;;;;;;;6.35;2.25;;;37.10;47.00;;;;;;5072171;28;20098;-63
2023/01/15 03:32:45;;;;;;;3.97;1.30;;;37.20;46.20;;;;;;5072464;28;20039;-62
2023/01/15 03:35:46;;;;;;;2.22;1.00;;;37.60;50.10;;;;;;5070859;28;20027;-62
2023/01/15 03:38:16;;;;;;;3.50;1.60;;;37.70;47.50;;;;;;5070674;28;20025;-63
2023/01/15 03:41:15;;;;;;;2.67;1.13;;;37.60;45.60;;;;;;5070226;28;20480;-63
2023/01/15 03:43:58;;;;;;;3.00;1.38;;;37.70;46.10;;;;;;5067237;28;20128;-63
2023/01/15 03:46:52;;;;;;;3.90;1.73;;;38.10;48.80;;;;;;5071094;28;20028;-63
2023/01/15 03:49:41;;;;;;;6.30;2.17;;;38.20;46.30;;;;;;5072304;28;20449;-63
2023/01/15 03:52:25;;;;;;;5.18;1.65;;;38.20;45.50;;;;;;5053297;28;20033;-64
2023/01/15 03:55:18;;;;;;;2.83;1.65;;;38.20;45.00;;;;;;5064771;28;20637;-64
2023/01/15 03:57:57;;;;;;;4.13;2.03;;;37.10;45.50;;;;;;5070802;28;20040;-63
2023/01/15 04:00:48;;;;;;;3.83;1.42;;;37.20;47.20;;;;;;5071422;28;20109;-63
2023/01/15 04:03:17;;;;;;;2.38;1.45;;;37.10;47.50;;;;;;5071701;28;20111;-63
2023/01/15 04:05:45;;;;;;;4.78;1.88;;;37.60;48.80;;;;;;5070140;28;20102;-62
2023/01/15 04:08:13;;;;;;;4.63;1.77;;;37.40;45.90;;;;;;5071218;28;20460;-63
2023/01/15 04:10:58;;;;;;;3.33;1.30;;;37.40;47.40;;;;;;5069768;28;20028;-62
2023/01/15 04:13:26;;;;;;;4.18;1.90;;;37.00;48.60;;;;;;5069172;28;20024;-63
2023/01/15 04:15:54;;;;;;;3.88;1.27;;;36.30;49.60;;;;;;5069961;28;20392;-63
2023/01/15 04:18:22;;;;;;;3.13;1.40;;;36.30;49.80;;;;;;5069352;28;20098;-63
2023/01/15 04:20:50;;;;;;;2.67;1.33;;;36.00;50.20;;;;;;5065108;28;20115;-62
2023/01/15 04:23:18;;;;;;;9.30;1.77;;;36.20;52.20;;;;;;5068215;28;20073;-64
2023/01/15 04:25:45;;;;;;;4.30;1.10;;;36.00;51.50;;;;;;5069625;28;20025;-64
2023/01/15 04:28:13;;;;;;;4.63;1.30;;;36.20;51.90;;;;;;5053928;28;20119;-63
2023/01/15 04:30:42;;;;;;;2.38;0.95;;;36.40;51.60;;;;;;5075085;28;20081;-63
2023/01/15 04:33:09;;;;;;;3.13;1.35;;;36.20;52.30;;;;;;5069315;28;20068;-63
2023/01/15 04:35:40;;;;;;;3.22;1.20;;;36.10;52.80;;;;;;5070462;28;20032;-65
2023/01/15 04:38:07;;;;;;;3.08;1.20;;;36.00;52.80;;;;;;5066742;28;20025;-64
2023/01/15 04:46:05;;;;;;;4.22;0.98;;;35.70;52.80;;;;;;5066571;28;20392;-63
2023/01/15 04:48:35;;;;;;;6.50;1.40;;;35.70;54.20;;;;;;5069782;28;20021;-63
2023/01/15 04:51:04;;;;;;;4.55;0.98;;;35.90;53.70;;;;;;5069485;28;20029;-63
2023/01/15 04:53:33;;;;;;;3.03;1.05;;;36.10;54.10;;;;;;5067218;28;20060;-63
2023/01/15 04:56:01;;;;;;;3.28;1.05;;;36.00;54.30;;;;;;5068178;28;20642;-63
2023/01/15 04:58:29;;;;;;;2.38;0.85;;;35.70;53.40;;;;;;5068681;28;20032;-63
2023/01/15 05:00:59;;;;;;;4.75;1.38;;;35.70;53.90;;;;;;5065103;28;20041;-64
2023/01/15 05:03:33;;;;;;;3.28;0.98;;;35.90;54.40;;;;;;5067142;28;20033;-65
2023/01/15 05:06:05;;;;;;;3.47;1.20;;;35.90;54.50;;;;;;5069432;28;20386;-65
2023/01/15 05:08:33;;;;;;;5.05;1.30;;;36.30;53.40;;;;;;5075129;28;20031;-65
2023/01/15 05:11:04;;;;;;;6.88;1.38;;;36.20;53.80;;;;;;5069186;28;20024;-65
2023/01/15 05:13:37;;;;;;;6.80;0.90;;;35.90;53.50;;;;;;5064041;28;20036;-66
2023/01/15 05:16:09;;;;;;;3.28;1.20;;;35.90;53.50;;;;;;5064337;28;20013;-66
2023/01/15 05:18:37;;;;;;;4.30;1.23;;;35.90;52.90;;;;;;5064775;28;20091;-65
2023/01/15 05:21:05;;;;;;;3.65;1.15;;;35.30;54.30;;;;;;5065797;28;20028;-64
2023/01/15 05:23:32;;;;;;;3.03;1.05;;;35.20;54.50;;;;;;5065227;28;20112;-62
2023/01/15 05:26:03;;;;;;;3.75;1.17;;;35.20;55.00;;;;;;5065741;28;20489;-64
2023/01/15 05:28:31;;;;;;;4.25;0.98;;;35.10;55.40;;;;;;5058796;28;20533;-64
2023/01/15 05:30:58;;;;;;;3.63;1.15;;;35.30;54.00;;;;;;5064061;28;20052;-63
2023/01/15 05:33:26;;;;;;;4.90;1.08;;;35.20;54.70;;;;;;5066832;28;20513;-67
2023/01/15 05:35:53;;;;;;;4.93;1.20;;;35.20;54.50;;;;;;5067890;28;20502;-66
2023/01/15 05:38:20;;;;;;;3.05;0.90;;;35.10;55.10;;;;;;5069096;28;20099;-66
2023/01/15 05:40:48;;;;;;;3.05;1.10;;;35.20;54.80;;;;;;5069084;28;20016;-66
2023/01/15 05:43:15;;;;;;;2.95;1.08;;;35.30;53.80;;;;;;5070601;28;20047;-67
2023/01/15 05:45:42;;;;;;;6.70;1.40;;;35.20;54.30;;;;;;5068822;28;20032;-67
2023/01/15 05:48:10;;;;;;;3.10;1.23;;;35.20;54.20;;;;;;5066728;28;20082;-67
2023/01/15 05:50:37;;;;;;;3.42;1.15;;;35.10;54.10;;;;;;5066700;28;20029;-67
2023/01/15 05:53:04;;;;;;;3.63;1.08;;;35.10;54.40;;;;;;5067429;28;20111;-67
2023/01/15 05:55:32;;;;;;;2.75;0.95;;;35.10;54.40;;;;;;5067311;28;20058;-66
2023/01/15 05:57:59;;;;;;;2.33;1.00;;;35.00;54.20;;;;;;5067624;28;20024;-67
2023/01/15 06:00:26;;;;;;;3.72;1.20;;;35.10;54.90;;;;;;5067704;28;20020;-66
2023/01/15 06:02:54;;;;;;;2.28;1.10;;;35.20;54.30;;;;;;5069351;28;20123;-67
2023/01/15 06:05:21;;;;;;;3.58;1.30;;;35.30;53.40;;;;;;5063407;28;20070;-67
2023/01/15 06:07:51;;;;;;;5.32;1.42;;;34.80;53.90;;;;;;5063144;28;20439;-67
2023/01/15 06:10:19;;;;;;;2.30;1.05;;;34.50;55.10;;;;;;5074249;28;20024;-67
2023/01/15 06:12:46;;;;;;;2.53;0.85;;;34.60;55.00;;;;;;5070371;28;20036;-68
2023/01/15 06:15:13;;;;;;;4.80;1.00;;;34.50;54.50;;;;;;5069178;28;20017;-67
2023/01/15 06:17:40;;;;;;;2.95;1.08;;;34.40;55.40;;;;;;5068306;28;20488;-67
2023/01/15 06:20:08;;;;;;;4.82;1.15;;;34.40;55.30;;;;;;5069005;28;20028;-68
2023/01/15 06:22:37;;;;;;;6.35;1.23;;;34.50;55.00;;;;;;5069376;28;20017;-67
2023/01/15 06:25:05;;;;;;;2.85;0.85;;;34.20;55.10;;;;;;5068859;28;20056;-67
2023/01/15 06:27:32;;;;;;;3.13;1.17;;;34.00;55.60;;;;;;5068971;28;20028;-67
2023/01/15 06:30:00;;;;;;;3.60;1.15;;;34.00;56.40;;;;;;5069172;28;20029;-67
2023/01/15 06:32:27;;;;;;;2.28;0.85;;;34.00;56.50;;;;;;5068834;28;20106;-67
2023/01/15 06:34:54;;;;;;;2.10;0.70;;;34.00;56.30;;;;;;5067661;28;20025;-67
2023/01/15 06:37:22;;;;;;;4.55;1.58;;;34.00;56.20;;;;;;5069316;28;20017;-66
2023/01/15 06:39:49;;;;;;;6.55;1.23;;;33.90;56.30;;;;;;5069245;28;20134;-66
2023/01/15 06:47:47;;;;;;;3.65;1.20;;;33.70;57.50;;;;;;5069381;28;20032;-68
2023/01/15 06:50:18;;;;;;;3.92;0.88;;;33.60;56.90;;;;;;5069363;28;20035;-68
2023/01/15 06:52:45;;;;;;;5.05;1.15;;;33.70;57.70;;;;;;5072907;28;20032;-68
2023/01/15 06:55:12;;;;;;;5.75;1.17;;;33.50;57.00;;;;;;5068986;28;20523;-70
2023/01/15 06:57:41;;;;;;;2.85;1.00;;;33.00;57.80;;;;;;5068103;28;20033;-68
2023/01/15 07:00:09;;;;;;;5.88;1.20;;;32.90;58.70;;;;;;5067455;28;20678;-68
2023/01/15 07:02:40;;;;;;;6.55;1.50;;;32.60;58.50;;;;;;5069007;28;20394;-69
2023/01/15 07:05:07;;;;;;;3.42;0.98;;;32.50;59.10;;;;;;5069748;28;20021;-69
2023/01/15 07:07:36;;;;;;;5.18;2.05;;;32.20;59.80;;;;;;5070011;28;20532;-68
2023/01/15 07:10:06;;;;;;;7.25;1.15;;;31.90;60.00;;;;;;5068252;28;20021;-70
2023/01/15 07:12:38;;;;;;;3.50;1.15;;;31.80;60.70;;;;;;5071476;28;20375;-68
2023/01/15 07:15:05;;;;;;;6.15;1.77;;;31.70;60.90;;;;;;5065197;28;20028;-67
2023/01/15 07:17:33;;;;;;;11.00;1.10;;;31.80;61.00;;;;;;5069534;28;20031;-68
2023/01/15 07:20:00;;;;;;;6.10;1.25;;;31.90;60.40;;;;;;5069481;28;20557;-72
2023/01/15 07:22:28;;;;;;;4.85;1.23;;;31.90;60.50;;;;;;5069759;28;20032;-67
2023/01/15 07:24:55;;;;;;;14.68;1.75;;;31.50;60.70;;;;;;5069694;28;20025;-66
2023/01/15 07:27:23;;;;;;;2.20;1.00;;;31.20;61.50;;;;;;5068542;28;20402;-67
2023/01/15 07:29:51;;;;;;;5.13;1.15;;;30.90;62.60;;;;;;5070003;28;20543;-66
2023/01/15 07:32:18;;;;;;;5.35;1.17;;;30.60;63.80;;;;;;5069911;28;20071;-68
2023/01/15 07:34:46;;;;;;;3.33;1.00;;;30.20;64.50;;;;;;5068945;28;20206;-68
2023/01/15 07:37:13;;;;;;;4.22;1.20;;;30.00;64.50;;;;;;5069035;28;20115;-67
2023/01/15 07:39:44;;;;;;;7.50;2.15;;;29.70;64.90;;;;;;5069364;28;20109;-68
2023/01/15 07:50:27;;;;;;;5.30;1.42;;;29.00;66.80;;;;;;5068857;28;20043;-67
2023/01/15 07:52:54;;;;;;;3.83;1.33;;;28.80;67.70;;;;;;5068852;28;20116;-68
2023/01/15 07:55:23;;;;;;;4.15;1.20;;;28.80;67.70;;;;;;5066448;28;20102;-66
2023/01/15 07:57:52;;;;;;;4.43;1.15;;;28.70;68.30;;;;;;5057958;28;20025;-69
2023/01/15 08:00:22;;;;;;;5.85;1.10;;;28.70;69.30;;;;;;5069043;28;20039;-68
2023/01/15 08:02:50;;;;;;;6.20;1.30;;;28.70;70.00;;;;;;5068254;28;20036;-68
2023/01/15 08:05:18;;;;;;;6.10;1.40;;;28.60;70.70;;;;;;5068898;28;20032;-67
2023/01/15 08:07:46;;;;;;;7.10;1.58;;;28.50;71.50;;;;;;5068751;28;20032;-68
2023/01/15 08:10:14;;;;;;;5.65;1.30;;;28.50;71.80;;;;;;5066972;28;20662;-67
2023/01/15 08:15:44;;;;;;;6.80;1.40;;;28.30;72.80;;;;;;5046771;28;20073;-67
2023/01/15 08:18:11;;;;;;;8.25;1.50;;;28.30;73.70;;;;;;5064596;28;20366;-68
2023/01/15 08:20:41;;;;;;;5.97;1.60;;;28.10;74.20;;;;;;5068765;28;20032;-66
2023/01/15 08:23:09;;;;;;;7.55;1.33;;;28.10;75.00;;;;;;5068983;28;20056;-68
2023/01/15 08:25:36;;;;;;;10.32;1.58;;;27.90;75.90;;;;;;5067849;28;20029;-66
2023/01/15 08:28:04;;;;;;;9.95;1.73;;;27.80;76.70;;;;;;5068558;28;20074;-68
2023/01/15 08:30:31;;;;;;;7.90;1.13;;;27.70;77.90;;;;;;5067329;28;20024;-67
2023/01/15 08:33:02;;;;;;;6.15;1.13;;;27.60;79.10;;;;;;5068376;28;20037;-67
2023/01/15 08:35:30;;;;;;;5.97;1.70;;;27.60;80.20;;;;;;5067673;28;20013;-66
2023/01/15 08:37:58;;;;;;;3.85;1.25;;;27.50;80.90;;;;;;5067335;28;20035;-68
2023/01/15 08:40:25;;;;;;;11.98;1.60;;;27.40;81.90;;;;;;5067692;28;20024;-67
2023/01/15 08:42:54;;;;;;;6.03;1.40;;;27.40;82.80;;;;;;5065608;28;20039;-68
2023/01/15 08:45:21;;;;;;;9.95;1.50;;;27.30;83.70;;;;;;5066462;28;20022;-67
2023/01/15 08:47:49;;;;;;;6.35;1.50;;;27.20;84.40;;;;;;5066588;28;20404;-67
2023/01/15 08:50:16;;;;;;;13.50;1.45;;;27.20;85.10;;;;;;5065664;28;20059;-67
2023/01/15 08:52:43;;;;;;;7.63;1.70;;;27.10;86.40;;;;;;5050131;28;20042;-67
2023/01/15 08:55:11;;;;;;;7.05;1.80;;;27.00;88.70;;;;;;5059627;28;20020;-67
2023/01/15 08:57:38;;;;;;;5.05;1.90;;;26.80;91.30;;;;;;5065697;28;20040;-66
2023/01/15 09:00:07;;;;;;;8.00;1.60;;;26.50;95.10;;;;;;5064530;28;20078;-67
2023/01/15 09:02:34;;;;;;;7.20;1.85;;;26.10;96.40;;;;;;5062874;28;20101;-68
2023/01/15 09:05:02;;;;;;;8.30;1.80;;;25.80;99.00;;;;;;5061046;28;20028;-67
2023/01/15 09:07:29;;;;;;;12.00;2.38;;;25.40;99.90;;;;;;5066790;28;20020;-68
2023/01/15 09:09:56;;;;;;;10.10;2.85;;;25.10;99.90;;;;;;5070311;28;20036;-68
2023/01/15 09:12:26;;;;;;;11.65;1.98;;;24.70;99.90;;;;;;5068812;28;20043;-64
2023/01/15 09:14:54;;;;;;;7.70;2.63;;;24.50;99.90;;;;;;5073189;28;20707;-66
2023/01/15 09:17:22;;;;;;;7.40;2.30;;;24.10;99.90;;;;;;5063739;28;20050;-67
2023/01/15 09:19:49;;;;;;;13.23;2.28;;;23.90;99.90;;;;;;5069699;28;20535;-67
2023/01/15 09:22:16;;;;;;;11.68;2.53;;;23.60;99.90;;;;;;5072301;28;20489;-67
2023/01/15 09:24:44;;;;;;;12.68;2.47;;;23.40;99.90;;;;;;5076015;28;20648;-66
2023/01/15 09:27:14;;;;;;;12.82;2.72;;;23.20;99.90;;;;;;5072375;28;20626;-65
2023/01/15 09:29:45;;;;;;;8.45;2.25;;;23.10;99.90;;;;;;5083639;28;20042;-65
2023/01/15 09:32:13;;;;;;;8.55;2.90;;;23.00;99.90;;;;;;5072487;28;20032;-65
2023/01/15 09:34:40;;;;;;;13.30;3.45;;;22.90;99.90;;;;;;5076303;28;20040;-66
2023/01/15 09:37:08;;;;;;;9.88;3.05;;;22.80;99.90;;;;;;5078923;28;20028;-66
2023/01/15 09:39:36;;;;;;;16.55;4.07;;;22.70;99.90;;;;;;5068089;28;20035;-64
2023/01/15 09:42:44;;;;;;;13.50;4.38;;;22.60;99.90;;;;;;5068210;28;20022;-63
2023/01/15 09:45:20;;;;;;;10.77;3.35;;;22.50;99.90;;;;;;5064296;28;20039;-64
2023/01/15 09:48:08;;;;;;;13.50;3.97;;;22.50;99.90;;;;;;5069369;28;20036;-64
2023/01/15 09:50:47;;;;;;;13.00;4.85;;;22.40;99.90;;;;;;5062362;28;20031;-66
2023/01/15 09:53:59;;;;;;;12.27;4.35;;;22.40;99.90;;;;;;5062648;28;20032;-65
2023/01/15 09:56:29;;;;;;;13.55;4.13;;;22.40;99.90;;;;;;5062593;28;20056;-66
2023/01/15 09:58:59;;;;;;;12.90;5.18;;;22.40;99.90;;;;;;5058314;28;20545;-64
2023/01/15 10:01:30;;;;;;;14.43;4.50;;;22.40;99.90;;;;;;5077563;28;20032;-66
2023/01/15 10:04:17;;;;;;;19.45;5.53;;;22.40;99.90;;;;;;5058640;28;20162;-66
2023/01/15 10:07:45;;;;;;;16.88;5.35;;;22.40;99.90;;;;;;5065622;28;20117;-64
2023/01/15 10:10:18;;;;;;;16.23;7.55;;;22.30;99.90;;;;;;5022971;28;20521;-66
2023/01/15 10:12:47;;;;;;;15.18;5.55;;;22.30;99.90;;;;;;5060505;28;20045;-64
2023/01/15 10:15:21;;;;;;;12.30;5.10;;;22.20;99.90;;;;;;5077385;28;20081;-64
2023/01/15 10:17:57;;;;;;;12.95;4.88;;;22.20;99.90;;;;;;5067828;28;20065;-65
2023/01/15 10:20:43;;;;;;;8.95;3.78;;;22.20;99.90;;;;;;5075263;28;20039;-63
2023/01/15 10:23:16;;;;;;;16.40;4.28;;;22.20;99.90;;;;;;5073590;28;20115;-65
2023/01/15 10:25:49;;;;;;;16.92;4.13;;;22.10;99.90;;;;;;5065632;28;20028;-66
2023/01/15 10:28:30;;;;;;;10.35;4.43;;;22.10;99.90;;;;;;5074097;28;20035;-67
2023/01/15 10:31:08;;;;;;;10.30;3.72;;;22.10;99.90;;;;;;5073046;28;20043;-65
2023/01/15 10:34:07;;;;;;;13.50;4.35;;;22.10;99.90;;;;;;5068473;28;20058;-65
2023/01/15 10:37:09;;;;;;;15.32;3.95;;;22.10;99.90;;;;;;5062166;28;20988;-64
2023/01/15 10:40:04;;;;;;;14.23;3.92;;;22.10;99.90;;;;;;5044591;28;20521;-65
2023/01/15 10:42:34;;;;;;;;;;;22.10;99.90;;;;;;5056611;28;20394;-64
2023/01/15 10:45:14;;;;;;;11.57;3.45;;;22.00;99.90;;;;;;5065025;28;19995;-64
2023/01/15 10:47:44;;;;;;;11.00;3.35;;;22.00;99.90;;;;;;5080432;28;20024;-65
2023/01/15 10:50:25;;;;;;;13.35;3.75;;;22.00;99.90;;;;;;5072206;28;20016;-65
2023/01/15 10:53:06;;;;;;;7.63;3.08;;;22.00;99.90;;;;;;5085427;28;20545;-65
2023/01/15 10:55:44;;;;;;;15.85;4.22;;;22.00;99.90;;;;;;5065904;28;20035;-66
2023/01/15 10:59:00;;;;;;;7.38;3.75;;;21.90;99.90;;;;;;5072054;28;20021;-65
2023/01/15 11:01:28;;;;;;;12.95;3.50;;;21.80;99.90;;;;;;5074199;28;20040;-64
2023/01/15 11:03:55;;;;;;;17.55;3.53;;;21.90;99.90;;;;;;5069926;28;20032;-64
2023/01/15 11:06:24;;;;;;;14.45;3.60;;;21.90;99.90;;;;;;5073063;28;20032;-65
2023/01/15 11:08:57;;;;;;;12.15;4.40;;;21.90;99.90;;;;;;5074851;28;20024;-65
2023/01/15 11:19:58;;;;;;;7.37;4.30;;;21.90;99.90;;;;;;5069338;28;20050;-66
2023/01/15 11:22:28;;;;;;;14.25;4.03;;;21.90;99.90;;;;;;5074560;28;20114;-66
2023/01/15 11:24:59;;;;;;;18.52;4.75;;;21.90;99.90;;;;;;5080974;28;20043;-65
2023/01/15 11:27:36;;;;;;;13.18;4.53;;;21.90;99.90;;;;;;5077655;28;20024;-67
2023/01/15 11:30:06;;;;;;;20.25;5.30;;;21.90;99.90;;;;;;5059551;28;20158;-67
2023/01/15 11:32:36;;;;;;;8.05;3.95;;;21.90;99.90;;;;;;5081652;28;20672;-65
2023/01/15 11:35:18;;;;;;;12.10;3.80;;;21.80;99.90;;;;;;5077388;28;20021;-66
2023/01/15 11:37:45;;;;;;;12.93;4.22;;;21.70;99.90;;;;;;5083112;28;20067;-66
2023/01/15 11:40:22;;;;;;;13.82;4.45;;;21.70;99.90;;;;;;5085446;28;20096;-64
2023/01/15 11:51:43;;;;;;;11.90;3.17;;;21.50;99.90;;;;;;5087283;28;20093;-64
2023/01/15 11:54:14;;;;;;;15.40;3.80;;;21.40;99.90;;;;;;5073364;28;20019;-65
2023/01/15 11:56:47;;;;;;;14.80;3.17;;;21.40;99.90;;;;;;5066280;28;20041;-65
2023/01/15 11:59:18;;;;;;;10.67;3.90;;;21.30;99.90;;;;;;5071254;28;20366;-66
2023/01/15 12:02:22;;;;;;;15.57;3.75;;;21.20;99.90;;;;;;5072168;28;20034;-66
2023/01/15 12:04:56;;;;;;;15.30;4.07;;;21.20;99.90;;;;;;5072915;28;20054;-65
2023/01/15 12:07:25;;;;;;;14.65;4.40;;;21.20;99.90;;;;;;5068331;28;20385;-64
2023/01/15 12:10:20;;;;;;;19.55;4.15;;;21.20;99.90;;;;;;5073038;28;20036;-66
2023/01/15 12:13:28;;;;;;;13.52;4.13;;;21.10;99.90;;;;;;5078481;28;20033;-66
2023/01/15 12:16:01;;;;;;;17.83;5.60;;;21.20;99.90;;;;;;5054312;28;20021;-65
2023/01/15 12:18:51;;;;;;;15.27;4.55;;;21.20;99.90;;;;;;5076941;28;20427;-66
2023/01/15 12:21:30;;;;;;;11.38;4.60;;;21.20;99.90;;;;;;5075138;28;20035;-66
2023/01/15 12:24:36;;;;;;;10.88;4.22;;;21.30;99.90;;;;;;5066881;28;20015;-66
2023/01/15 12:27:07;;;;;;;13.70;4.38;;;21.20;99.90;;;;;;5075466;28;20046;-67
2023/01/15 12:30:00;;;;;;;9.23;3.45;;;21.10;99.90;;;;;;5071173;28;20029;-68
2023/01/15 12:32:36;;;;;;;11.38;3.88;;;21.10;99.90;;;;;;5080523;28;20497;-66
2023/01/15 12:35:06;;;;;;;12.38;3.63;;;21.00;99.90;;;;;;5079453;28;20031;-63
2023/01/15 12:37:56;;;;;;;13.60;3.17;;;21.00;99.90;;;;;;5075254;28;20046;-66
2023/01/15 12:40:59;;;;;;;10.27;3.38;;;20.90;99.90;;;;;;5069299;28;20031;-65
2023/01/15 12:46:29;;;;;;;9.35;2.28;;;20.80;99.90;;;;;;5070045;28;20338;-66
2023/01/15 12:49:02;;;;;;;11.23;3.40;;;20.70;99.90;;;;;;5070205;28;20025;-65
2023/01/15 12:52:19;;;;;;;14.07;3.42;;;20.70;99.90;;;;;;5069722;28;20075;-65
2023/01/15 12:55:24;;;;;;;14.63;4.30;;;20.60;99.90;;;;;;5056147;28;20486;-66
2023/01/15 12:57:56;;;;;;;9.93;3.13;;;20.70;99.90;;;;;;5073410;28;20420;-66
2023/01/15 13:00:41;;;;;;;10.77;3.30;;;20.60;99.90;;;;;;5070963;28;20016;-67
2023/01/15 13:03:29;;;;;;;17.63;3.75;;;20.60;99.90;;;;;;5070159;28;20028;-67
2023/01/15 13:06:08;;;;;;;13.65;4.30;;;20.60;99.90;;;;;;5054421;28;20117;-66
2023/01/15 13:09:18;;;;;;;15.10;5.18;;;20.70;99.90;;;;;;5069647;28;20074;-64
2023/01/15 13:11:45;;;;;;;6.28;2.45;;;20.60;99.90;;;;;;5068830;28;20040;-65
2023/01/15 13:14:16;;;;;;;12.60;2.75;;;20.50;99.90;;;;;;5067730;28;20137;-65
2023/01/15 13:16:49;;;;;;;8.35;2.10;;;20.40;99.90;;;;;;5068749;28;20596;-67
2023/01/15 13:19:26;;;;;;;6.93;2.33;;;20.40;99.90;;;;;;5069374;28;20036;-65
2023/01/15 13:21:58;;;;;;;10.02;2.38;;;20.30;99.90;;;;;;5070224;28;20024;-65
2023/01/15 13:24:59;;;;;;;11.55;3.85;;;20.20;99.90;;;;;;5069443;28;20024;-65
2023/01/15 13:27:42;;;;;;;13.20;2.50;;;20.10;99.90;;;;;;5061590;28;20033;-65
2023/01/15 13:30:15;;;;;;;7.60;2.80;;;20.10;99.90;;;;;;5068936;28;20024;-65
2023/01/15 13:32:55;;;;;;;15.00;2.83;;;20.00;99.90;;;;;;5069137;28;20024;-65
2023/01/15 13:35:28;;;;;;;18.13;3.60;;;20.00;99.90;;;;;;5084444;28;20058;-68
2023/01/15 13:37:59;;;;;;;8.57;2.58;;;20.10;99.90;;;;;;5066439;28;20028;-63
2023/01/15 13:40:49;;;;;;;14.73;2.60;;;20.10;99.90;;;;;;5068506;28;20071;-65
2023/01/15 13:43:28;;;;;;;12.50;2.55;;;20.10;99.90;;;;;;5068053;28;20059;-65
2023/01/15 13:45:56;;;;;;;12.23;2.85;;;20.10;99.90;;;;;;5055403;28;20020;-66
2023/01/15 13:48:56;;;;;;;10.50;2.88;;;20.10;99.90;;;;;;5076328;28;20024;-64
2023/01/15 13:51:29;;;;;;;13.18;1.98;;;20.10;99.90;;;;;;5061109;28;20044;-64
2023/01/15 13:53:59;;;;;;;14.57;2.35;;;20.30;99.90;;;;;;5061305;28;20362;-65
2023/01/15 13:56:34;;;;;;;10.60;2.10;;;20.30;99.90;;;;;;5079653;28;20138;-65
2023/01/15 13:59:04;;;;;;;7.97;2.08;;;20.20;99.90;;;;;;5084085;28;20054;-66
2023/01/15 14:01:36;;;;;;;13.57;1.83;;;20.10;99.90;;;;;;5069897;28;20025;-66
2023/01/15 14:04:11;;;;;;;13.45;2.20;;;20.10;99.90;;;;;;5070108;28;20035;-66
2023/01/15 14:06:51;;;;;;;9.02;1.83;;;20.00;99.90;;;;;;5070865;28;20513;-66